Terminal Aerodrome Forecast
Issued by NWS

Home | Current Version | Previous Version | Text Only | Print | Product List | Glossary Off
Versions: 1 2 3 4 5 6 7 8 9 10 11 12 13 14 15 16 17 18 19 20 21 22 23 24 25 26 27 28 29 30 31 32 33 34 35

000
FTUS43 KGRB 040226 AAB
TAFRHI
TAF AMD
KRHI 040226Z 0402/0424 28007KT P6SM SCT045 BKN090
      TEMPO 0403/0404 36015G25KT 5SM -TSRA BR BKN030CB
     FM040400 VRB02KT P6SM SCT040 SCT090
     FM040900 VRB02KT 5SM BR SCT003
      TEMPO 0410/0414 2SM BR
     FM041400 10004KT P6SM SCT035
     FM041800 21004KT P6SM SCT040=

USA.gov is the U.S. government's official web portal to all federal, state and local government web resources and services.